Terminal Aerodrome Forecast
Issued by NWS Duluth, MN

Home | Current Version | Previous Version | Text Only | Print | Product List | Glossary On
Versions: 1 2 3 4 5 6 7 8 9 10 11 12 13 14 15 16 17
000
FTUS43 KDLH 242300
TAFDLH
TAF
KDLH 242333Z 2500/2524 09013KT P6SM FEW020 OVC050
      TEMPO 2500/2503 P6SM -SNRA SCT020 OVC035
     FM250400 08013KT P6SM SCT015 OVC045
      TEMPO 2504/2508 BKN015 OVC045
     FM251500 08014KT P6SM BKN045 OVC080
     FM252000 08015KT P6SM BKN080=

USA.gov is the U.S. government's official web portal to all federal, state and local government web resources and services.